createdAt,value
2023-06-17T00:01:21.439Z,12.60
2023-06-17T00:03:49.083Z,13.25
2023-06-17T00:06:16.425Z,13.32
2023-06-17T00:08:43.712Z,10.60
2023-06-17T00:11:11.501Z,11.23
2023-06-17T00:13:39.950Z,13.35
2023-06-17T00:16:07.544Z,14.00
2023-06-17T00:18:35.051Z,13.32
2023-06-17T00:21:03.508Z,16.40
2023-06-17T00:23:31.392Z,11.75
2023-06-17T00:25:58.961Z,12.27
2023-06-17T00:28:26.289Z,14.98
2023-06-17T00:30:54.659Z,13.93
2023-06-17T00:33:24.019Z,16.33
2023-06-17T00:35:52.967Z,15.32
2023-06-17T00:38:23.484Z,14.05
2023-06-17T00:40:51.785Z,22.52
2023-06-17T00:43:19.139Z,13.90
2023-06-17T00:45:48.770Z,16.10
2023-06-17T00:48:16.435Z,16.73
2023-06-17T00:50:46.757Z,14.60
2023-06-17T00:53:14.181Z,11.25
2023-06-17T00:55:41.957Z,16.42
2023-06-17T00:58:09.812Z,14.07
2023-06-17T01:00:38.008Z,15.70
2023-06-17T01:03:06.731Z,14.98
2023-06-17T01:05:34.427Z,16.30
2023-06-17T01:08:27.076Z,18.60
2023-06-17T01:11:08.361Z,17.30
2023-06-17T01:13:36.738Z,13.38
2023-06-17T01:16:06.413Z,14.40
2023-06-17T01:18:37.863Z,19.52
2023-06-17T01:21:07.286Z,18.52
2023-06-17T01:23:36.283Z,14.18
2023-06-17T01:26:04.053Z,23.23
2023-06-17T01:28:33.105Z,17.58
2023-06-17T01:31:02.125Z,15.13
2023-06-17T01:33:29.484Z,20.05
2023-06-17T01:36:07.973Z,15.90
2023-06-17T01:38:43.093Z,15.85
2023-06-17T01:41:15.835Z,17.95
2023-06-17T01:43:45.226Z,15.77
2023-06-17T01:46:16.132Z,15.75
2023-06-17T01:48:43.764Z,16.88
2023-06-17T01:51:11.440Z,12.82
2023-06-17T01:53:38.713Z,15.90
2023-06-17T01:56:06.400Z,13.30
2023-06-17T01:58:36.441Z,14.15
2023-06-17T02:01:04.185Z,14.65
2023-06-17T02:03:32.098Z,12.13
2023-06-17T02:05:59.794Z,15.75
2023-06-17T02:08:28.304Z,14.13
2023-06-17T02:10:56.002Z,20.23
2023-06-17T02:13:25.923Z,20.65
2023-06-17T02:15:53.670Z,20.42
2023-06-17T02:18:21.907Z,21.83
2023-06-17T02:20:49.906Z,22.00
2023-06-17T02:23:17.793Z,17.08
2023-06-17T02:25:48.367Z,30.73
2023-06-17T02:28:16.704Z,20.38
2023-06-17T02:30:44.115Z,19.13
2023-06-17T02:33:14.036Z,18.02
2023-06-17T02:35:41.536Z,18.02
2023-06-17T02:38:09.248Z,17.10
2023-06-17T02:40:36.689Z,18.55
2023-06-17T02:43:03.920Z,19.80
2023-06-17T02:45:31.433Z,18.33
2023-06-17T02:47:59.500Z,14.50
2023-06-17T02:50:27.428Z,24.65
2023-06-17T02:52:57.190Z,14.23
2023-06-17T02:55:29.955Z,15.48
2023-06-17T02:57:59.705Z,18.60
2023-06-17T03:00:32.229Z,15.02
2023-06-17T03:03:00.048Z,19.52
2023-06-17T03:05:27.992Z,15.27
2023-06-17T03:07:55.481Z,28.33
2023-06-17T03:10:23.724Z,19.38
2023-06-17T03:13:01.061Z,21.42
2023-06-17T03:15:29.411Z,16.40
2023-06-17T03:17:58.667Z,17.05
2023-06-17T03:20:29.929Z,16.80
2023-06-17T03:22:58.361Z,21.38
2023-06-17T03:25:26.103Z,17.48
2023-06-17T03:27:54.348Z,15.32
2023-06-17T03:30:25.463Z,16.02
2023-06-17T03:32:55.029Z,14.80
2023-06-17T03:35:22.617Z,12.45
2023-06-17T03:37:50.527Z,17.65
2023-06-17T03:40:18.889Z,17.27
2023-06-17T03:42:48.079Z,16.05
2023-06-17T03:45:15.860Z,14.45
2023-06-17T03:47:43.359Z,12.70
2023-06-17T03:50:11.146Z,11.55
2023-06-17T03:52:38.744Z,13.65
2023-06-17T03:55:06.915Z,12.00
2023-06-17T03:57:44.246Z,10.25
2023-06-17T04:00:12.840Z,13.77
2023-06-17T04:02:55.693Z,11.25
2023-06-17T04:05:34.648Z,9.23
2023-06-17T04:08:04.177Z,9.88
2023-06-17T04:10:31.874Z,11.50
2023-06-17T04:13:00.231Z,9.13
2023-06-17T04:15:28.271Z,10.10
2023-06-17T04:17:58.076Z,8.88
2023-06-17T04:20:27.251Z,9.52
2023-06-17T04:22:54.828Z,11.75
2023-06-17T04:25:24.285Z,12.45
2023-06-17T04:27:55.224Z,12.00
2023-06-17T04:30:26.424Z,11.00
2023-06-17T04:32:59.601Z,14.10
2023-06-17T04:35:30.949Z,11.43
2023-06-17T04:38:03.140Z,10.45
2023-06-17T04:40:33.475Z,8.90
2023-06-17T04:43:02.610Z,9.02
2023-06-17T04:45:31.997Z,11.32
2023-06-17T04:48:05.436Z,10.80
2023-06-17T04:50:35.017Z,11.65
2023-06-17T04:53:05.453Z,11.35
2023-06-17T04:55:37.049Z,11.70
2023-06-17T04:58:07.087Z,10.25
2023-06-17T05:00:40.382Z,11.18
2023-06-17T05:03:08.708Z,12.45
2023-06-17T05:05:37.848Z,8.25
2023-06-17T05:08:05.479Z,8.30
2023-06-17T05:10:33.056Z,12.65
2023-06-17T05:13:00.854Z,9.60
2023-06-17T05:15:30.585Z,13.35
2023-06-17T05:17:58.525Z,9.32
2023-06-17T05:20:26.198Z,7.53
2023-06-17T05:22:54.295Z,9.00
2023-06-17T05:25:21.612Z,11.70
2023-06-17T05:27:49.595Z,8.20
2023-06-17T05:30:17.984Z,10.43
2023-06-17T05:32:48.779Z,11.57
2023-06-17T05:35:17.572Z,8.10
2023-06-17T05:37:45.305Z,12.55
2023-06-17T05:40:13.330Z,9.32
2023-06-17T05:42:41.542Z,13.43
2023-06-17T05:45:09.178Z,8.50
2023-06-17T05:47:36.889Z,9.23
2023-06-17T05:50:04.352Z,10.50
2023-06-17T05:52:33.452Z,9.55
2023-06-17T05:55:00.885Z,8.60
2023-06-17T05:57:30.893Z,7.60
2023-06-17T05:59:58.494Z,10.70
2023-06-17T06:02:25.781Z,11.35
2023-06-17T06:04:53.430Z,10.98
2023-06-17T06:07:20.707Z,7.43
2023-06-17T06:09:48.187Z,8.30
2023-06-17T06:12:15.579Z,11.27
2023-06-17T06:14:44.215Z,8.13
2023-06-17T06:17:11.505Z,7.43
2023-06-17T06:19:38.982Z,7.30
2023-06-17T06:22:07.058Z,7.25
2023-06-17T06:24:35.108Z,7.28
2023-06-17T06:27:03.132Z,10.63
2023-06-17T06:29:30.667Z,9.23
2023-06-17T06:31:58.741Z,7.10
2023-06-17T06:34:26.359Z,8.10
2023-06-17T06:36:55.020Z,6.75
2023-06-17T06:39:23.358Z,11.52
2023-06-17T06:41:51.029Z,7.53
2023-06-17T06:44:36.610Z,12.40
2023-06-17T06:47:04.172Z,7.18
2023-06-17T06:49:32.018Z,6.13
2023-06-17T06:51:59.341Z,6.90
2023-06-17T06:54:29.015Z,10.70
2023-06-17T06:56:58.129Z,7.97
2023-06-17T06:59:26.878Z,10.82
2023-06-17T07:01:55.332Z,12.15
2023-06-17T07:04:22.657Z,10.40
2023-06-17T07:06:54.283Z,9.68
2023-06-17T07:09:26.811Z,10.32
2023-06-17T07:11:54.114Z,9.75
2023-06-17T07:14:21.614Z,14.35
2023-06-17T07:16:49.261Z,8.57
2023-06-17T07:19:17.076Z,13.15
2023-06-17T07:21:44.845Z,8.25
2023-06-17T07:24:12.370Z,8.45
2023-06-17T07:26:39.795Z,5.72
2023-06-17T07:29:07.570Z,10.70
2023-06-17T07:31:34.963Z,10.48
2023-06-17T07:34:03.002Z,6.70
2023-06-17T07:36:31.327Z,9.57
2023-06-17T07:38:58.899Z,6.10
2023-06-17T07:41:26.480Z,11.15
2023-06-17T07:43:53.998Z,8.82
2023-06-17T07:46:21.819Z,7.38
2023-06-17T07:48:49.168Z,7.78
2023-06-17T07:51:16.707Z,9.45
2023-06-17T07:53:44.176Z,7.53
2023-06-17T07:56:11.695Z,6.88
2023-06-17T07:58:39.192Z,8.40
2023-06-17T08:01:06.943Z,5.20
2023-06-17T08:03:34.414Z,6.35
2023-06-17T08:06:02.803Z,7.43
2023-06-17T08:08:30.298Z,9.30
2023-06-17T08:10:57.739Z,5.97
2023-06-17T08:13:25.003Z,9.52
2023-06-17T08:15:53.027Z,7.35
2023-06-17T08:18:20.452Z,11.55
2023-06-17T08:20:48.329Z,9.02
2023-06-17T08:23:15.657Z,5.88
2023-06-17T08:25:43.279Z,10.57
2023-06-17T08:28:10.755Z,8.20
2023-06-17T08:30:38.359Z,8.02
2023-06-17T08:33:05.809Z,6.80
2023-06-17T08:35:33.453Z,9.32
2023-06-17T08:38:00.978Z,7.57
2023-06-17T08:40:28.855Z,10.98
2023-06-17T08:43:03.995Z,8.93
2023-06-17T08:45:32.071Z,6.40
2023-06-17T08:47:59.692Z,7.03
2023-06-17T08:50:29.674Z,7.65
2023-06-17T08:52:59.356Z,8.60
2023-06-17T08:55:27.158Z,7.43
2023-06-17T08:57:54.751Z,9.15
2023-06-17T09:00:22.483Z,7.63
2023-06-17T09:02:50.379Z,7.43
2023-06-17T09:05:17.968Z,6.72
2023-06-17T09:07:45.218Z,12.63
2023-06-17T09:10:16.582Z,6.68
2023-06-17T09:12:45.179Z,6.20
2023-06-17T09:15:19.403Z,7.10
2023-06-17T09:17:47.524Z,7.07
2023-06-17T09:20:16.499Z,6.93
2023-06-17T09:22:46.153Z,10.50
2023-06-17T09:25:15.711Z,7.75
2023-06-17T09:28:02.589Z,11.63
2023-06-17T09:30:38.322Z,6.97
2023-06-17T09:33:18.539Z,7.03
2023-06-17T09:35:46.273Z,7.78
2023-06-17T09:38:18.710Z,8.50
2023-06-17T09:40:50.015Z,9.15
2023-06-17T09:43:27.673Z,9.60
2023-06-17T09:46:04.698Z,8.55
2023-06-17T09:48:37.490Z,7.28
2023-06-17T09:51:11.050Z,6.60
2023-06-17T09:53:40.015Z,8.55
2023-06-17T09:56:12.685Z,7.55
2023-06-17T09:58:44.333Z,9.23
2023-06-17T10:01:13.888Z,8.82
2023-06-17T10:03:41.647Z,9.85
2023-06-17T10:06:12.638Z,15.32
2023-06-17T10:08:50.058Z,9.75
2023-06-17T10:11:21.858Z,8.57
2023-06-17T10:13:54.092Z,10.25
2023-06-17T10:16:24.911Z,12.68
2023-06-17T10:18:54.388Z,8.65
2023-06-17T10:21:25.576Z,10.07
2023-06-17T10:23:55.250Z,9.60
2023-06-17T10:26:23.177Z,9.07
2023-06-17T10:28:53.399Z,14.32
2023-06-17T10:31:33.193Z,8.68
2023-06-17T10:34:04.974Z,9.20
2023-06-17T10:36:36.721Z,9.73
2023-06-17T10:39:11.803Z,10.48
2023-06-17T10:41:42.157Z,9.50
2023-06-17T10:44:21.744Z,7.70
2023-06-17T10:46:52.695Z,8.40
2023-06-17T10:49:21.535Z,9.75
2023-06-17T10:51:57.766Z,8.50
2023-06-17T10:54:31.924Z,8.55
2023-06-17T10:57:03.442Z,9.75
2023-06-17T10:59:32.878Z,6.70
2023-06-17T11:02:03.636Z,6.90
2023-06-17T11:04:33.583Z,9.18
2023-06-17T11:07:04.024Z,9.57
2023-06-17T11:09:34.378Z,6.90
2023-06-17T11:12:03.862Z,7.45
2023-06-17T11:14:33.916Z,8.38
2023-06-17T11:17:01.622Z,7.07
2023-06-17T11:19:29.443Z,10.23
2023-06-17T11:21:58.843Z,9.98
2023-06-17T11:24:27.043Z,9.13
2023-06-17T11:26:56.301Z,11.93
2023-06-17T11:29:24.769Z,8.65
2023-06-17T11:31:52.642Z,8.23
2023-06-17T11:34:20.789Z,8.38
2023-06-17T11:36:56.684Z,10.15
2023-06-17T11:39:25.220Z,8.35
2023-06-17T11:41:54.131Z,9.27
2023-06-17T11:44:21.714Z,9.98
2023-06-17T11:46:56.605Z,13.30
2023-06-17T11:49:26.193Z,8.68
2023-06-17T11:51:53.787Z,12.77
2023-06-17T11:54:26.649Z,12.60
2023-06-17T11:56:56.237Z,8.68
2023-06-17T11:59:25.423Z,9.68
2023-06-17T12:01:55.425Z,9.63
2023-06-17T12:04:23.345Z,10.38
2023-06-17T12:06:51.008Z,11.85
2023-06-17T12:09:21.011Z,8.23
2023-06-17T12:11:50.704Z,9.95
2023-06-17T12:14:21.456Z,8.80
2023-06-17T12:16:49.094Z,15.57
2023-06-17T12:19:25.653Z,14.07
2023-06-17T12:21:53.179Z,10.48
2023-06-17T12:24:21.243Z,9.07
2023-06-17T12:26:49.386Z,11.75
2023-06-17T12:29:25.399Z,10.32
2023-06-17T12:31:54.336Z,11.73
2023-06-17T12:34:21.803Z,11.15
2023-06-17T12:36:49.548Z,12.13
2023-06-17T12:39:19.754Z,10.45
2023-06-17T12:41:47.224Z,11.98
2023-06-17T12:44:14.769Z,12.13
2023-06-17T12:46:42.656Z,10.40
2023-06-17T12:49:10.554Z,9.32
2023-06-17T12:51:37.813Z,10.77
2023-06-17T12:54:06.294Z,11.52
2023-06-17T12:56:33.572Z,12.07
2023-06-17T12:59:02.263Z,10.85
2023-06-17T13:01:30.669Z,9.38
2023-06-17T13:03:58.734Z,11.68
2023-06-17T13:06:27.094Z,12.38
2023-06-17T13:08:55.471Z,12.38
2023-06-17T13:11:23.226Z,11.18
2023-06-17T13:13:51.758Z,10.45
2023-06-17T13:16:19.333Z,12.13
2023-06-17T13:18:46.736Z,13.38
2023-06-17T13:21:13.936Z,16.63
2023-06-17T13:23:41.380Z,12.68
2023-06-17T13:26:08.864Z,10.93
2023-06-17T13:28:38.090Z,15.57
2023-06-17T13:31:05.641Z,15.82
2023-06-17T13:33:33.881Z,13.25
2023-06-17T13:36:01.550Z,14.45
2023-06-17T13:38:29.044Z,16.38
2023-06-17T13:40:56.438Z,15.85
2023-06-17T13:43:23.967Z,11.77
2023-06-17T13:45:51.733Z,14.07
2023-06-17T13:48:19.340Z,14.43
2023-06-17T13:50:49.505Z,19.58
2023-06-17T13:53:17.010Z,14.00
2023-06-17T13:55:44.325Z,13.40
2023-06-17T13:58:11.647Z,14.52
2023-06-17T14:00:38.879Z,13.82
2023-06-17T14:03:06.652Z,15.32
2023-06-17T14:05:34.293Z,14.43
2023-06-17T14:08:01.787Z,18.27
2023-06-17T14:10:29.550Z,15.20
2023-06-17T14:12:57.067Z,12.60
2023-06-17T14:15:24.752Z,17.05
2023-06-17T14:17:52.369Z,17.52
2023-06-17T14:20:20.258Z,15.93
2023-06-17T14:22:50.886Z,13.80
2023-06-17T14:25:28.538Z,21.65
2023-06-17T14:27:55.933Z,15.57
2023-06-17T14:30:23.700Z,15.18
2023-06-17T14:32:51.378Z,15.48
2023-06-17T14:35:20.508Z,18.00
2023-06-17T14:37:49.802Z,14.25
2023-06-17T14:40:18.460Z,13.90
2023-06-17T14:42:47.935Z,18.23
2023-06-17T14:45:17.360Z,17.05
2023-06-17T14:47:45.812Z,14.98
2023-06-17T14:50:14.753Z,18.52
2023-06-17T14:52:42.924Z,18.30
2023-06-17T14:55:10.548Z,20.38
2023-06-17T14:57:38.759Z,15.45
2023-06-17T15:00:07.196Z,17.05
2023-06-17T15:02:49.871Z,17.75
2023-06-17T15:05:18.862Z,17.98
2023-06-17T15:07:46.325Z,15.25
2023-06-17T15:10:13.798Z,18.05
2023-06-17T15:12:45.430Z,24.00
2023-06-17T15:15:14.676Z,15.32
2023-06-17T15:17:42.861Z,14.90
2023-06-17T15:20:11.474Z,19.75
2023-06-17T15:22:39.761Z,16.45
2023-06-17T15:25:08.398Z,16.83
2023-06-17T15:27:36.113Z,15.40
2023-06-17T15:30:03.897Z,15.35
2023-06-17T15:32:33.974Z,18.48
2023-06-17T15:35:01.610Z,16.35
2023-06-17T15:37:33.299Z,16.23
2023-06-17T15:40:01.913Z,14.15
2023-06-17T15:42:31.952Z,17.90
2023-06-17T15:44:59.428Z,20.77
2023-06-17T15:47:28.445Z,19.98
2023-06-17T15:49:55.988Z,14.80
2023-06-17T15:52:25.542Z,16.60
2023-06-17T15:54:57.299Z,21.67
2023-06-17T15:57:24.847Z,18.83
2023-06-17T15:59:52.160Z,16.85
2023-06-17T16:02:19.571Z,17.92
2023-06-17T16:04:51.512Z,15.23
2023-06-17T16:07:18.951Z,15.65
2023-06-17T16:09:52.280Z,14.77
2023-06-17T16:12:19.803Z,13.70
2023-06-17T16:14:47.646Z,20.02
2023-06-17T16:17:15.192Z,11.63
2023-06-17T16:19:42.850Z,12.05
2023-06-17T16:22:11.866Z,13.25
2023-06-17T16:24:41.394Z,15.52
2023-06-17T16:27:12.348Z,12.15
2023-06-17T16:29:39.711Z,13.48
2023-06-17T16:32:10.535Z,11.10
2023-06-17T16:34:40.173Z,18.42
2023-06-17T16:37:07.677Z,16.35
2023-06-17T16:39:35.585Z,9.98
2023-06-17T16:42:07.496Z,15.93
2023-06-17T16:44:35.239Z,13.48
2023-06-17T16:47:04.759Z,11.70
2023-06-17T16:49:32.176Z,14.32
2023-06-17T16:51:59.791Z,13.43
2023-06-17T16:54:27.260Z,13.77
2023-06-17T16:56:56.607Z,14.50
2023-06-17T16:59:24.396Z,13.45
2023-06-17T17:01:52.147Z,15.38
2023-06-17T17:04:19.826Z,16.13
2023-06-17T17:06:47.124Z,10.95
2023-06-17T17:09:14.540Z,14.95
2023-06-17T17:11:42.883Z,14.48
2023-06-17T17:14:10.396Z,17.40
2023-06-17T17:16:37.737Z,13.02
2023-06-17T17:19:06.128Z,11.95
2023-06-17T17:21:35.242Z,16.73
2023-06-17T17:24:05.754Z,17.23
2023-06-17T17:26:37.003Z,14.85
2023-06-17T17:29:04.559Z,11.98
2023-06-17T17:31:32.877Z,16.63
2023-06-17T17:34:00.285Z,15.57
2023-06-17T17:36:30.224Z,13.80
2023-06-17T17:39:00.583Z,16.40
2023-06-17T17:41:27.735Z,12.07
2023-06-17T17:43:58.116Z,14.10
2023-06-17T17:46:30.792Z,17.70
2023-06-17T17:48:58.156Z,15.35
2023-06-17T17:51:25.952Z,16.85
2023-06-17T17:53:56.510Z,15.25
2023-06-17T17:56:24.028Z,15.05
2023-06-17T17:58:51.808Z,17.50
2023-06-17T18:01:21.436Z,15.48
2023-06-17T18:03:49.708Z,21.80
2023-06-17T18:06:19.717Z,14.63
2023-06-17T18:08:50.249Z,16.42
2023-06-17T18:11:22.960Z,13.95
2023-06-17T18:13:53.170Z,17.60
2023-06-17T18:16:32.603Z,19.35
2023-06-17T18:19:29.439Z,13.80
2023-06-17T18:21:59.830Z,17.73
2023-06-17T18:24:27.327Z,12.60
2023-06-17T18:26:54.947Z,12.70
2023-06-17T18:29:22.251Z,12.73
2023-06-17T18:31:52.273Z,23.50
2023-06-17T18:34:19.992Z,11.52
2023-06-17T18:36:47.463Z,12.80
2023-06-17T18:39:14.851Z,10.65
2023-06-17T18:41:45.062Z,15.25
2023-06-17T18:44:14.263Z,11.70
2023-06-17T18:46:41.982Z,16.60
2023-06-17T18:49:11.859Z,13.85
2023-06-17T18:51:39.133Z,12.05
2023-06-17T18:54:07.789Z,9.13
2023-06-17T18:56:35.317Z,11.88
2023-06-17T18:59:02.772Z,12.77
2023-06-17T19:01:32.749Z,11.60
2023-06-17T19:04:00.799Z,7.38
2023-06-17T19:06:28.341Z,8.85
2023-06-17T19:08:55.879Z,10.52
2023-06-17T19:11:23.593Z,13.98
2023-06-17T19:13:50.858Z,10.07
2023-06-17T19:16:20.049Z,11.98
2023-06-17T19:18:47.396Z,11.00
2023-06-17T19:21:14.953Z,15.15
2023-06-17T19:23:42.604Z,11.75
2023-06-17T19:26:10.062Z,8.85
2023-06-17T19:28:37.288Z,9.27
2023-06-17T19:31:04.766Z,15.57
2023-06-17T19:33:32.226Z,10.10
2023-06-17T19:35:59.584Z,13.02
2023-06-17T19:38:27.036Z,16.23
2023-06-17T19:40:54.522Z,14.02
2023-06-17T19:43:23.954Z,12.40
2023-06-17T19:45:53.391Z,13.82
2023-06-17T19:48:20.751Z,12.63
2023-06-17T19:50:48.131Z,17.38
2023-06-17T19:53:15.424Z,17.10
2023-06-17T19:55:44.424Z,15.98
2023-06-17T19:58:11.625Z,13.65
2023-06-17T20:00:39.373Z,14.65
2023-06-17T20:03:07.364Z,15.15
2023-06-17T20:05:35.019Z,13.93
2023-06-17T20:08:03.281Z,13.13
2023-06-17T20:10:30.819Z,12.85
2023-06-17T20:12:59.244Z,15.18
2023-06-17T20:15:27.339Z,15.43
2023-06-17T20:17:54.899Z,15.25
2023-06-17T20:20:22.774Z,13.43
2023-06-17T20:22:51.262Z,12.68
2023-06-17T20:25:19.474Z,19.33
2023-06-17T20:27:46.849Z,16.42
2023-06-17T20:30:14.772Z,13.00
2023-06-17T20:32:42.721Z,12.55
2023-06-17T20:35:10.345Z,11.07
2023-06-17T20:37:37.741Z,12.45
2023-06-17T20:40:06.439Z,8.50
2023-06-17T20:42:33.874Z,13.85
2023-06-17T20:45:01.832Z,10.25
2023-06-17T20:47:32.927Z,12.23
2023-06-17T20:50:00.244Z,11.18
2023-06-17T20:52:27.743Z,10.50
2023-06-17T20:54:55.028Z,12.07
2023-06-17T20:57:22.707Z,6.32
2023-06-17T20:59:53.307Z,13.40
2023-06-17T21:02:21.073Z,10.60
2023-06-17T21:04:52.959Z,11.02
2023-06-17T21:07:20.397Z,10.35
2023-06-17T21:09:48.427Z,12.05
2023-06-17T21:12:15.997Z,11.35
2023-06-17T21:14:44.101Z,10.60
2023-06-17T21:17:11.879Z,13.05
2023-06-17T21:19:39.537Z,12.50
2023-06-17T21:22:07.127Z,11.93
2023-06-17T21:24:34.625Z,11.48
2023-06-17T21:27:02.697Z,11.63
2023-06-17T21:29:30.167Z,9.35
2023-06-17T21:31:57.599Z,10.80
2023-06-17T21:34:24.963Z,11.07
2023-06-17T21:36:54.367Z,8.93
2023-06-17T21:39:21.935Z,7.47
2023-06-17T21:41:49.226Z,9.05
2023-06-17T21:44:16.762Z,13.73
2023-06-17T21:46:44.225Z,10.57
2023-06-17T21:49:11.721Z,10.23
2023-06-17T21:51:39.185Z,11.50
2023-06-17T21:54:07.328Z,9.90
2023-06-17T21:56:34.854Z,9.25
2023-06-17T21:59:02.319Z,9.93
2023-06-17T22:01:31.994Z,6.32
2023-06-17T22:03:59.504Z,6.93
2023-06-17T22:06:28.882Z,7.88
2023-06-17T22:08:58.901Z,9.30
2023-06-17T22:11:26.518Z,8.68
2023-06-17T22:13:56.288Z,6.15
2023-06-17T22:16:23.936Z,6.60
2023-06-17T22:18:51.813Z,11.80
2023-06-17T22:21:19.145Z,8.32
2023-06-17T22:23:46.753Z,12.00
2023-06-17T22:26:14.343Z,6.82
2023-06-17T22:28:42.083Z,11.15
2023-06-17T22:31:09.572Z,10.70
2023-06-17T22:33:36.897Z,8.73
2023-06-17T22:36:06.527Z,7.60
2023-06-17T22:38:43.293Z,7.63
2023-06-17T22:41:10.646Z,12.20
2023-06-17T22:43:40.522Z,9.20
2023-06-17T22:46:12.787Z,6.63
2023-06-17T22:48:40.121Z,8.55
2023-06-17T22:51:08.057Z,7.97
2023-06-17T22:53:35.848Z,6.25
2023-06-17T22:56:03.779Z,8.48
2023-06-17T22:58:31.352Z,9.52
2023-06-17T23:00:58.691Z,7.95
2023-06-17T23:03:26.858Z,8.88
2023-06-17T23:05:54.218Z,10.55
2023-06-17T23:08:23.861Z,7.32
2023-06-17T23:10:52.435Z,8.98
2023-06-17T23:13:20.808Z,6.22
2023-06-17T23:15:48.552Z,4.70
2023-06-17T23:18:16.146Z,7.75
2023-06-17T23:20:45.157Z,9.95
2023-06-17T23:23:18.919Z,10.13
2023-06-17T23:25:46.064Z,7.47
2023-06-17T23:28:13.380Z,9.40
2023-06-17T23:30:40.807Z,7.63
2023-06-17T23:33:12.112Z,7.85
2023-06-17T23:35:39.491Z,14.38
2023-06-17T23:38:06.866Z,7.85
2023-06-17T23:40:34.247Z,8.98
2023-06-17T23:43:01.710Z,6.75
2023-06-17T23:45:30.739Z,10.63
2023-06-17T23:47:58.147Z,10.70
2023-06-17T23:50:25.475Z,9.00
2023-06-17T23:52:52.782Z,10.00
2023-06-17T23:55:20.129Z,10.88
2023-06-17T23:57:47.592Z,11.15
